Time;durP1;ratioP1;P1;durP2;ratioP2;P2;SDS_P1;SDS_P2;PMS_P1;PMS_P2;Temp;Humidity;BMP_temperature;BMP_pressure;BME280_temperature;BME280_humidity;BME280_pressure;Samples;Min_cycle;Max_cycle;Signal;HPM_P1;HPM_P2
2021/08/26 05:02:30;;;;;;;11.27;5.93;;;16.90;75.50;;;;;;5022653;23;20067;-90
2021/08/26 05:08:28;;;;;;;17.02;6.90;;;16.90;75.70;;;;;;4918772;29;20106;-89
2021/08/26 05:14:15;;;;;;;14.50;6.85;;;16.90;75.90;;;;;;4919275;29;20031;-90
2021/08/26 05:20:03;;;;;;;14.15;8.07;;;16.90;76.30;;;;;;4918291;29;20059;-86
2021/08/26 05:25:51;;;;;;;13.38;7.50;;;17.00;76.20;;;;;;4918079;29;20107;-86
2021/08/26 05:31:39;;;;;;;11.32;5.68;;;16.90;76.00;;;;;;4919091;29;20059;-86
2021/08/26 05:37:27;;;;;;;14.30;8.60;;;16.80;75.20;;;;;;4917693;29;20111;-86
2021/08/26 05:43:15;;;;;;;14.10;8.02;;;16.70;75.90;;;;;;4917979;29;20031;-86
2021/08/26 05:49:06;;;;;;;15.57;7.35;;;16.60;76.20;;;;;;4919552;29;20057;-85
2021/08/26 05:54:53;;;;;;;20.73;10.43;;;16.50;76.20;;;;;;4928157;29;20031;-89
2021/08/26 06:00:40;;;;;;;17.20;8.85;;;16.50;76.50;;;;;;4919299;29;20499;-91
2021/08/26 06:06:28;;;;;;;14.55;8.20;;;16.50;77.00;;;;;;4937470;29;20052;-95
2021/08/26 06:12:30;;;;;;;16.33;9.40;;;16.60;76.70;;;;;;4938978;29;20039;-95
2021/08/26 06:18:25;;;;;;;13.45;8.00;;;16.60;76.70;;;;;;4917668;29;20088;-83
2021/08/26 06:24:15;;;;;;;13.57;7.72;;;16.70;77.20;;;;;;4917791;29;20123;-87
2021/08/26 06:30:05;;;;;;;18.00;10.07;;;16.80;77.50;;;;;;4918115;29;20055;-88
2021/08/26 06:35:53;;;;;;;14.00;8.88;;;16.90;77.10;;;;;;4917475;29;20083;-87
2021/08/26 06:41:41;;;;;;;14.32;7.30;;;16.70;77.20;;;;;;4918629;29;20035;-88
2021/08/26 06:47:28;;;;;;;13.73;8.23;;;16.70;78.20;;;;;;4917497;29;20028;-87
2021/08/26 06:53:18;;;;;;;12.90;7.53;;;16.90;77.90;;;;;;4921073;29;20083;-87
2021/08/26 06:59:05;;;;;;;9.10;4.80;;;17.00;77.60;;;;;;4920713;29;20042;-85
2021/08/26 07:08:56;;;;;;;10.38;5.53;;;16.80;78.00;;;;;;4920528;29;20047;-86
2021/08/26 07:14:44;;;;;;;10.00;5.13;;;16.70;78.40;;;;;;4920454;29;20035;-88
2021/08/26 07:20:35;;;;;;;11.55;5.80;;;16.80;78.90;;;;;;4921527;29;20536;-89
2021/08/26 07:26:22;;;;;;;10.25;5.10;;;17.30;79.80;;;;;;4921339;29;20031;-90
2021/08/26 07:32:10;;;;;;;8.45;4.50;;;17.90;79.60;;;;;;4920302;29;20416;-86
2021/08/26 07:37:58;;;;;;;8.82;4.43;;;18.20;78.20;;;;;;4920082;29;20035;-88
2021/08/26 07:43:45;;;;;;;9.32;5.00;;;18.40;77.80;;;;;;4919876;29;20079;-86
2021/08/26 07:49:33;;;;;;;9.00;4.53;;;18.70;78.10;;;;;;4920103;29;20044;-88
2021/08/26 07:55:23;;;;;;;10.60;5.97;;;19.20;78.80;;;;;;4920217;29;20038;-88
2021/08/26 08:01:10;;;;;;;9.55;5.28;;;19.80;77.40;;;;;;4919726;29;20032;-86
2021/08/26 08:10:52;;;;;;;9.02;5.20;;;19.60;76.30;;;;;;4921651;29;20111;-90
2021/08/26 08:16:43;;;;;;;9.40;4.80;;;19.60;75.90;;;;;;4919083;29;20028;-82
2021/08/26 08:22:30;;;;;;;9.05;4.47;;;19.60;76.70;;;;;;4919422;29;20038;-88
2021/08/26 08:28:18;;;;;;;11.05;4.75;;;20.00;75.30;;;;;;4919278;29;20086;-88
2021/08/26 08:34:05;;;;;;;8.60;4.63;;;20.00;75.80;;;;;;4919925;29;20115;-89
2021/08/26 08:39:53;;;;;;;8.77;4.28;;;20.20;75.40;;;;;;4919436;29;20376;-89
2021/08/26 08:45:45;;;;;;;7.35;3.70;;;20.50;75.60;;;;;;4919099;29;20447;-87
2021/08/26 08:51:39;;;;;;;6.18;3.05;;;20.80;74.40;;;;;;4920083;29;20047;-89
2021/08/26 08:57:27;;;;;;;6.85;3.05;;;21.40;75.20;;;;;;4918593;29;20502;-86
2021/08/26 09:03:14;;;;;;;5.95;2.72;;;22.20;74.00;;;;;;4918327;29;20507;-88
2021/08/26 09:12:55;;;;;;;7.93;2.83;;;23.20;72.80;;;;;;4917860;29;20100;-87
2021/08/26 09:18:46;;;;;;;4.90;2.33;;;22.70;70.20;;;;;;4918722;29;20496;-89
2021/08/26 09:24:45;;;;;;;5.68;2.58;;;21.90;71.30;;;;;;4918669;29;20035;-89
2021/08/26 09:30:33;;;;;;;4.28;2.22;;;21.80;72.40;;;;;;4918440;29;20032;-89
2021/08/26 09:36:56;;;;;;;4.25;2.20;;;22.10;73.30;;;;;;4918931;29;20038;-90
2021/08/26 09:46:05;;;;;;;6.10;2.78;;;22.10;70.70;;;;;;4918459;29;20027;-89
2021/08/26 09:52:12;;;;;;;4.55;2.28;;;22.20;70.40;;;;;;4917534;29;20047;-87
2021/08/26 09:58:21;;;;;;;3.95;2.22;;;23.30;72.20;;;;;;4917781;29;20028;-79
2021/08/26 10:04:28;;;;;;;3.08;1.90;;;23.50;67.30;;;;;;4917757;29;20036;-89
2021/08/26 10:10:15;;;;;;;4.75;2.20;;;23.00;67.10;;;;;;4915706;29;20465;-83
2021/08/26 10:16:03;;;;;;;5.32;2.10;;;22.70;68.10;;;;;;4917423;29;20042;-83
2021/08/26 10:21:51;;;;;;;3.05;1.83;;;23.60;70.30;;;;;;4917405;29;20035;-83
2021/08/26 10:27:43;;;;;;;5.00;1.95;;;24.80;68.90;;;;;;4921150;29;20120;-84
2021/08/26 10:33:33;;;;;;;2.90;1.80;;;24.70;65.50;;;;;;4921164;29;20146;-91
2021/08/26 10:39:33;;;;;;;3.65;1.90;;;23.90;63.60;;;;;;4923909;29;20035;-91
2021/08/26 10:45:35;;;;;;;2.35;1.67;;;23.70;67.20;;;;;;4926142;29;20392;-85
2021/08/26 10:51:23;;;;;;;2.95;1.73;;;24.80;67.10;;;;;;4923803;29;20131;-87
2021/08/26 10:57:25;;;;;;;3.38;1.67;;;25.80;65.30;;;;;;4920892;29;20071;-86
2021/08/26 11:03:32;;;;;;;2.95;1.80;;;26.00;61.10;;;;;;4923152;29;20445;-88
2021/08/26 11:09:26;;;;;;;2.75;1.70;;;26.90;59.70;;;;;;4920305;29;20550;-83
2021/08/26 11:15:25;;;;;;;5.38;2.05;;;27.20;57.40;;;;;;4920215;29;20038;-84
2021/08/26 11:21:13;;;;;;;3.58;1.80;;;28.40;55.60;;;;;;4920169;29;20119;-85
2021/08/26 11:27:17;;;;;;;3.20;1.80;;;29.70;54.90;;;;;;4920103;29;20058;-88
2021/08/26 11:33:05;;;;;;;4.72;2.10;;;31.20;49.90;;;;;;4920542;29;20511;-89
2021/08/26 11:38:54;;;;;;;3.47;2.03;;;31.20;48.30;;;;;;4921675;29;20492;-88
2021/08/26 11:44:44;;;;;;;3.10;1.60;;;31.80;47.70;;;;;;4920919;29;20027;-87
2021/08/26 11:50:41;;;;;;;4.13;2.08;;;32.60;47.70;;;;;;4921591;29;20515;-83
2021/08/26 11:56:41;;;;;;;4.65;1.70;;;32.60;45.20;;;;;;4922752;29;20075;-87
2021/08/26 12:02:29;;;;;;;5.35;2.25;;;31.90;43.80;;;;;;4921948;29;20072;-89
2021/08/26 12:08:17;;;;;;;2.67;1.70;;;32.80;44.20;;;;;;4921776;29;20073;-85
2021/08/26 12:14:09;;;;;;;2.45;1.70;;;31.40;43.00;;;;;;4922642;29;20031;-87
2021/08/26 12:19:57;;;;;;;2.03;1.67;;;31.30;46.10;;;;;;4939858;29;20048;-88
2021/08/26 12:26:02;;;;;;;4.13;1.60;;;32.40;43.00;;;;;;4926914;29;20038;-85
2021/08/26 12:31:50;;;;;;;3.58;1.98;;;33.50;43.30;;;;;;4922022;29;20074;-85
2021/08/26 12:37:51;;;;;;;3.05;1.60;;;34.50;42.70;;;;;;4922699;29;20026;-86
2021/08/26 12:43:45;;;;;;;2.60;1.80;;;36.10;41.90;;;;;;4922139;29;20038;-86
2021/08/26 12:49:46;;;;;;;1.83;1.30;;;36.50;40.70;;;;;;4922249;29;20115;-91
2021/08/26 12:55:36;;;;;;;3.22;1.77;;;36.70;39.00;;;;;;4921793;29;20078;-89
2021/08/26 13:01:25;;;;;;;2.65;1.70;;;37.00;39.30;;;;;;4921455;29;20175;-90
2021/08/26 13:07:21;;;;;;;3.10;1.85;;;38.00;39.00;;;;;;4922803;29;20031;-87
2021/08/26 13:16:57;;;;;;;2.35;1.60;;;39.50;37.70;;;;;;4922709;29;20579;-84
2021/08/26 13:22:44;;;;;;;2.55;1.63;;;39.90;36.40;;;;;;4923649;29;20034;-84
2021/08/26 13:28:34;;;;;;;2.45;1.60;;;40.70;33.40;;;;;;4921956;29;20075;-82
2021/08/26 13:34:22;;;;;;;2.03;1.77;;;41.70;34.10;;;;;;4923391;29;20042;-83
2021/08/26 13:40:12;;;;;;;1.52;1.42;;;42.70;30.60;;;;;;4921339;29;20038;-84
2021/08/26 13:46:00;;;;;;;2.28;1.67;;;43.20;28.40;;;;;;4933245;29;20039;-90
2021/08/26 13:51:51;;;;;;;2.28;1.60;;;43.50;28.70;;;;;;4921645;29;20051;-88
2021/08/26 13:57:52;;;;;;;2.97;1.80;;;43.60;27.30;;;;;;4922453;29;20066;-93
2021/08/26 14:03:41;;;;;;;4.05;2.13;;;44.40;26.20;;;;;;4925511;29;20039;-87
2021/08/26 14:09:31;;;;;;;10.68;7.95;;;44.50;26.30;;;;;;4926626;29;20044;-87
2021/08/26 14:19:13;;;;;;;2.67;2.20;;;47.70;25.90;;;;;;4925703;29;20413;-86
2021/08/26 14:25:06;;;;;;;;;;;49.10;23.40;;;;;;4925420;29;20046;-86
2021/08/26 14:30:54;;;;;;;3.28;2.15;;;48.80;22.70;;;;;;4923955;29;20176;-86
2021/08/26 14:36:51;;;;;;;2.17;1.88;;;46.90;21.80;;;;;;4924308;29;20197;-86
2021/08/26 14:42:39;;;;;;;2.22;1.80;;;44.10;21.60;;;;;;4924153;29;20071;-86
2021/08/26 14:48:27;;;;;;;3.10;2.00;;;43.20;22.50;;;;;;4922921;29;20035;-87
2021/08/26 15:00:48;;;;;;;2.38;1.60;;;42.80;22.80;;;;;;4848814;29;20125;-90
2021/08/26 15:06:36;;;;;;;1.42;1.33;;;42.30;22.90;;;;;;4942652;29;20076;-85
2021/08/26 15:12:24;;;;;;;3.83;1.70;;;40.60;23.20;;;;;;4923106;29;20043;-88
2021/08/26 15:22:12;;;;;;;3.40;1.75;;;41.40;23.40;;;;;;4926384;29;20472;-87
2021/08/26 15:28:03;;;;;;;3.72;1.90;;;42.10;23.50;;;;;;4925176;29;20056;-87
2021/08/26 15:34:03;;;;;;;;;;;42.80;23.60;;;;;;4931716;29;20043;-86
2021/08/26 15:39:54;;;;;;;2.67;1.60;;;42.90;23.10;;;;;;4928345;29;20043;-87
2021/08/26 15:45:44;;;;;;;2.10;1.42;;;42.30;23.10;;;;;;4925495;29;20091;-86
2021/08/26 15:51:33;;;;;;;2.00;1.40;;;42.20;23.20;;;;;;4923618;29;20267;-86
2021/08/26 16:03:13;;;;;;;4.22;1.65;;;42.10;23.60;;;;;;4923174;29;20134;-87
2021/08/26 16:09:02;;;;;;;2.58;1.60;;;41.60;23.20;;;;;;4922692;29;20076;-86
2021/08/26 16:14:50;;;;;;;1.60;1.15;;;39.70;23.40;;;;;;4922858;29;20047;-88
2021/08/26 16:24:40;;;;;;;2.92;1.67;;;37.00;24.80;;;;;;4922802;29;20093;-86
2021/08/26 16:30:28;;;;;;;3.28;1.50;;;36.30;25.40;;;;;;4942862;29;20031;-85
2021/08/26 16:36:16;;;;;;;5.40;1.70;;;35.30;26.20;;;;;;4922423;29;20400;-84
2021/08/26 16:42:04;;;;;;;2.67;1.60;;;35.40;26.20;;;;;;4918840;29;20164;-82
2021/08/26 16:47:52;;;;;;;4.75;1.80;;;35.00;26.60;;;;;;4918757;29;20072;-82
2021/08/26 16:53:42;;;;;;;5.35;1.95;;;35.00;26.60;;;;;;4918860;29;20087;-82
2021/08/26 16:59:29;;;;;;;4.88;1.70;;;34.40;27.30;;;;;;4918377;29;20111;-82
2021/08/26 17:05:17;;;;;;;3.80;1.90;;;33.90;27.30;;;;;;4919021;29;20036;-84
2021/08/26 17:11:04;;;;;;;3.53;1.88;;;33.30;27.40;;;;;;4919239;29;20103;-84
2021/08/26 17:16:52;;;;;;;4.93;2.03;;;32.20;27.90;;;;;;4918885;29;20096;-86
2021/08/26 17:26:35;;;;;;;3.08;1.75;;;30.20;28.60;;;;;;4919364;29;20099;-88
2021/08/26 17:32:25;;;;;;;2.92;1.65;;;28.10;29.40;;;;;;4920450;29;20043;-89
2021/08/26 17:38:19;;;;;;;2.78;1.52;;;26.40;30.10;;;;;;4919210;29;20392;-88
2021/08/26 17:44:07;;;;;;;3.33;1.70;;;24.80;31.80;;;;;;4918144;29;20126;-87
2021/08/26 17:49:55;;;;;;;3.03;1.50;;;23.80;33.40;;;;;;4925857;29;20056;-92
2021/08/26 17:55:42;;;;;;;3.05;1.65;;;23.00;34.20;;;;;;4929042;29;20088;-93
2021/08/26 18:01:30;;;;;;;1.60;1.30;;;22.40;35.40;;;;;;4923318;29;20027;-89
2021/08/26 18:07:19;;;;;;;2.45;1.35;;;21.90;36.30;;;;;;4924049;29;20039;-91
2021/08/26 18:13:11;;;;;;;3.78;1.70;;;21.40;37.10;;;;;;4923799;29;20092;-89
2021/08/26 18:19:01;;;;;;;2.83;1.33;;;20.90;38.20;;;;;;4924999;29;20491;-91
2021/08/26 18:28:43;;;;;;;2.58;1.40;;;20.10;39.80;;;;;;4923931;29;20092;-90
2021/08/26 18:34:32;;;;;;;2.35;1.60;;;19.70;41.00;;;;;;4922862;29;20055;-93
2021/08/26 18:40:20;;;;;;;6.30;2.40;;;19.40;42.00;;;;;;4924180;29;20083;-92
2021/08/26 18:46:15;;;;;;;3.92;1.83;;;19.10;43.20;;;;;;4926539;29;20091;-89
2021/08/26 18:52:04;;;;;;;11.55;5.45;;;18.90;44.00;;;;;;4928048;29;20108;-90
2021/08/26 18:57:55;;;;;;;4.47;2.10;;;18.70;44.80;;;;;;4929402;29;20063;-89
2021/08/26 19:03:46;;;;;;;6.32;2.50;;;18.40;45.80;;;;;;4927913;29;20064;-87
2021/08/26 19:09:44;;;;;;;6.65;2.60;;;18.20;46.60;;;;;;4929191;29;20043;-89
2021/08/26 19:15:36;;;;;;;4.38;2.30;;;18.00;47.50;;;;;;4944569;29;20038;-87
2021/08/26 19:21:25;;;;;;;6.22;2.13;;;17.80;48.10;;;;;;4930639;29;20560;-90
2021/08/26 19:31:15;;;;;;;5.25;2.17;;;17.50;49.50;;;;;;4929976;29;20080;-90
2021/08/26 19:37:06;;;;;;;6.13;2.28;;;17.30;50.50;;;;;;4929449;29;20527;-88
2021/08/26 19:42:57;;;;;;;5.63;2.40;;;17.10;51.40;;;;;;4931268;29;20060;-90
2021/08/26 19:48:48;;;;;;;5.30;2.13;;;17.00;52.30;;;;;;4932610;29;20030;-90
2021/08/26 19:54:39;;;;;;;5.03;2.13;;;16.80;53.00;;;;;;4930072;29;20068;-90
2021/08/26 20:00:27;;;;;;;4.90;1.98;;;16.60;54.10;;;;;;4931315;29;20079;-89
2021/08/26 20:06:16;;;;;;;6.57;2.22;;;16.60;55.00;;;;;;4928063;29;20059;-87
2021/08/26 20:12:35;;;;;;;;;;;;;;;;;;;;;
2021/08/26 20:18:18;;;;;;;4.97;2.00;;;16.50;56.40;;;;;;4927403;29;20039;-88
2021/08/26 20:24:09;;;;;;;4.30;2.15;;;16.40;57.50;;;;;;4930765;29;20034;-88
2021/08/26 20:31:10;;;;;;;3.70;1.90;;;16.30;58.30;;;;;;4939396;29;20148;-91
2021/08/26 20:37:40;;;;;;;3.10;1.58;;;16.20;58.80;;;;;;4940167;29;20047;-91
2021/08/26 20:43:28;;;;;;;6.40;2.50;;;16.10;59.30;;;;;;4936983;29;20289;-91
2021/08/26 20:49:16;;;;;;;4.68;2.10;;;16.00;60.00;;;;;;4930569;29;20052;-90
2021/08/26 20:55:05;;;;;;;5.25;2.08;;;15.80;60.70;;;;;;4933985;29;20042;-90
